createdAt,value
2022-08-26T00:02:08.931Z,3.28
2022-08-26T00:04:38.313Z,2.83
2022-08-26T00:07:07.795Z,2.70
2022-08-26T00:09:40.057Z,2.50
2022-08-26T00:12:12.443Z,2.65
2022-08-26T00:14:42.147Z,2.67
2022-08-26T00:17:11.844Z,2.38
2022-08-26T00:19:43.625Z,2.42
2022-08-26T00:22:12.854Z,3.17
2022-08-26T00:24:49.553Z,2.55
2022-08-26T00:27:19.232Z,3.15
2022-08-26T00:29:50.006Z,3.00
2022-08-26T00:32:19.965Z,2.60
2022-08-26T00:34:49.219Z,3.30
2022-08-26T00:37:18.511Z,2.80
2022-08-26T00:39:47.712Z,3.08
2022-08-26T00:42:16.992Z,3.17
2022-08-26T00:44:47.134Z,2.88
2022-08-26T00:47:35.573Z,2.88
2022-08-26T00:50:12.667Z,3.03
2022-08-26T00:52:44.069Z,2.63
2022-08-26T00:55:22.036Z,2.65
2022-08-26T00:57:53.425Z,2.72
2022-08-26T01:00:27.506Z,2.65
2022-08-26T01:02:59.570Z,2.25
2022-08-26T01:05:29.416Z,2.20
2022-08-26T01:07:59.640Z,2.28
2022-08-26T01:10:32.647Z,2.90
2022-08-26T01:13:07.413Z,2.20
2022-08-26T01:15:43.092Z,2.40
2022-08-26T01:18:13.802Z,2.75
2022-08-26T01:20:45.915Z,2.55
2022-08-26T01:23:16.475Z,2.65
2022-08-26T01:25:50.500Z,2.17
2022-08-26T01:28:25.934Z,2.53
2022-08-26T01:30:57.413Z,2.30
2022-08-26T01:33:42.155Z,2.47
2022-08-26T01:36:13.599Z,3.08
2022-08-26T01:38:46.182Z,2.25
2022-08-26T01:41:19.690Z,2.50
2022-08-26T01:43:59.854Z,2.63
2022-08-26T01:46:32.665Z,2.65
2022-08-26T01:51:40.418Z,2.72
2022-08-26T01:54:13.866Z,2.45
2022-08-26T01:56:44.885Z,2.50
2022-08-26T01:59:18.520Z,2.13
2022-08-26T02:01:50.119Z,2.10
2022-08-26T02:04:35.588Z,2.75
2022-08-26T02:07:08.217Z,2.40
2022-08-26T02:09:42.985Z,2.67
2022-08-26T02:12:14.150Z,2.08
2022-08-26T02:14:51.669Z,2.17
2022-08-26T02:17:26.683Z,2.15
2022-08-26T02:19:58.815Z,2.08
2022-08-26T02:22:28.137Z,2.37
2022-08-26T02:25:02.359Z,2.50
2022-08-26T02:27:35.326Z,2.60
2022-08-26T02:30:26.544Z,2.35
2022-08-26T02:33:02.619Z,3.08
2022-08-26T02:35:33.984Z,2.80
2022-08-26T02:38:10.169Z,2.53
2022-08-26T02:40:43.716Z,2.80
2022-08-26T02:43:14.012Z,3.13
2022-08-26T02:45:44.604Z,3.00
2022-08-26T02:48:18.760Z,3.17
2022-08-26T02:50:48.981Z,3.03
2022-08-26T02:53:25.018Z,3.42
2022-08-26T02:55:55.275Z,3.00
2022-08-26T02:58:25.000Z,3.35
2022-08-26T03:00:55.430Z,3.22
2022-08-26T03:03:25.299Z,3.47
2022-08-26T03:06:00.331Z,3.58
2022-08-26T03:08:30.323Z,2.92
2022-08-26T03:11:08.310Z,3.45
2022-08-26T03:13:42.131Z,3.53
2022-08-26T03:16:17.561Z,2.90
2022-08-26T03:18:52.211Z,3.28
2022-08-26T03:21:29.461Z,2.70
2022-08-26T03:24:01.854Z,2.95
2022-08-26T03:26:52.641Z,3.13
2022-08-26T03:29:43.579Z,3.05
2022-08-26T03:32:13.460Z,3.00
2022-08-26T03:34:46.201Z,3.47
2022-08-26T03:37:25.989Z,3.28
2022-08-26T03:39:56.644Z,3.60
2022-08-26T03:42:28.167Z,3.40
2022-08-26T03:44:59.177Z,3.00
2022-08-26T03:47:31.511Z,2.53
2022-08-26T03:50:18.054Z,3.28
2022-08-26T03:52:55.736Z,3.20
2022-08-26T03:55:34.143Z,3.88
2022-08-26T03:58:10.321Z,4.15
2022-08-26T04:00:47.508Z,3.33
2022-08-26T04:03:39.219Z,3.40
2022-08-26T04:06:10.038Z,3.30
2022-08-26T04:08:51.396Z,4.78
2022-08-26T04:11:27.196Z,3.50
2022-08-26T04:13:56.927Z,3.88
2022-08-26T04:16:28.790Z,3.20
2022-08-26T04:19:00.712Z,3.92
2022-08-26T04:21:34.434Z,3.53
2022-08-26T04:24:04.450Z,3.33
2022-08-26T04:26:42.888Z,3.63
2022-08-26T04:29:17.553Z,3.67
2022-08-26T04:31:51.729Z,4.07
2022-08-26T04:34:29.265Z,5.10
2022-08-26T04:36:59.290Z,4.18
2022-08-26T04:39:31.463Z,3.72
2022-08-26T04:42:02.726Z,3.88
2022-08-26T04:44:32.675Z,3.80
2022-08-26T04:47:03.053Z,3.38
2022-08-26T04:49:35.519Z,3.80
2022-08-26T04:52:07.124Z,3.40
2022-08-26T04:54:37.543Z,3.28
2022-08-26T04:57:06.827Z,3.72
2022-08-26T04:59:39.301Z,3.88
2022-08-26T05:04:38.684Z,2.97
2022-08-26T05:07:09.428Z,2.70
2022-08-26T05:09:42.189Z,3.42
2022-08-26T05:12:11.700Z,3.38
2022-08-26T05:14:42.791Z,3.42
2022-08-26T05:17:15.048Z,3.30
2022-08-26T05:19:44.507Z,3.40
2022-08-26T05:22:13.783Z,3.58
2022-08-26T05:24:44.717Z,4.00
2022-08-26T05:27:14.882Z,3.85
2022-08-26T05:29:44.400Z,4.68
2022-08-26T05:32:13.758Z,4.30
2022-08-26T05:34:43.377Z,4.97
2022-08-26T05:37:13.592Z,4.50
2022-08-26T05:39:43.540Z,5.00
2022-08-26T05:42:22.504Z,4.10
2022-08-26T05:44:56.294Z,4.85
2022-08-26T05:47:26.172Z,4.85
2022-08-26T05:49:56.157Z,4.13
2022-08-26T05:52:26.032Z,4.55
2022-08-26T05:54:55.651Z,5.00
2022-08-26T05:57:26.917Z,4.78
2022-08-26T06:02:28.582Z,5.22
2022-08-26T06:04:58.843Z,4.00
2022-08-26T06:07:49.355Z,4.95
2022-08-26T06:10:32.234Z,5.38
2022-08-26T06:13:13.637Z,5.03
2022-08-26T06:15:47.040Z,5.10
2022-08-26T06:18:23.910Z,5.40
2022-08-26T06:20:57.609Z,5.25
2022-08-26T06:23:49.980Z,5.00
2022-08-26T06:26:20.473Z,5.57
2022-08-26T06:28:53.775Z,6.22
2022-08-26T06:31:40.509Z,6.50
2022-08-26T06:34:20.974Z,6.35
2022-08-26T06:40:00.002Z,6.93
2022-08-26T06:45:32.087Z,6.47
2022-08-26T06:48:02.178Z,6.50
2022-08-26T06:50:31.750Z,6.57
2022-08-26T06:53:11.213Z,6.82
2022-08-26T06:58:51.424Z,6.10
2022-08-26T07:01:30.510Z,6.30
2022-08-26T07:04:10.342Z,6.32
2022-08-26T07:06:44.833Z,5.43
2022-08-26T07:09:52.917Z,5.78
2022-08-26T07:12:06.922Z,4.95
2022-08-26T07:14:39.255Z,4.82
2022-08-26T07:17:13.907Z,7.97
2022-08-26T07:19:44.617Z,4.45
2022-08-26T07:22:15.129Z,6.78
2022-08-26T07:24:45.727Z,3.38
2022-08-26T07:27:18.369Z,3.38
2022-08-26T07:29:51.438Z,2.80
2022-08-26T07:32:23.507Z,2.97
2022-08-26T07:34:53.276Z,3.50
2022-08-26T07:37:30.518Z,3.45
2022-08-26T07:40:06.474Z,3.15
2022-08-26T07:42:36.691Z,3.40
2022-08-26T07:45:07.253Z,3.25
2022-08-26T07:47:36.615Z,3.53
2022-08-26T07:50:06.282Z,3.40
2022-08-26T07:52:36.319Z,3.13
2022-08-26T07:55:11.779Z,3.20
2022-08-26T07:57:41.653Z,3.50
2022-08-26T08:00:14.347Z,4.05
2022-08-26T08:02:47.034Z,3.40
2022-08-26T08:05:18.466Z,3.95
2022-08-26T08:07:48.498Z,4.30
2022-08-26T08:10:26.044Z,3.55
2022-08-26T08:13:03.432Z,3.88
2022-08-26T08:15:35.170Z,3.60
2022-08-26T08:18:15.438Z,3.72
2022-08-26T08:21:28.964Z,3.65
2022-08-26T08:23:41.161Z,4.03
2022-08-26T08:26:12.438Z,4.75
2022-08-26T08:28:43.742Z,4.18
2022-08-26T08:31:38.660Z,3.83
2022-08-26T08:34:11.205Z,3.90
2022-08-26T08:36:41.420Z,3.67
2022-08-26T08:39:18.031Z,3.35
2022-08-26T08:42:12.868Z,3.92
2022-08-26T08:44:52.024Z,3.80
2022-08-26T08:47:28.787Z,3.60
2022-08-26T08:50:10.197Z,3.45
2022-08-26T08:52:43.270Z,4.97
2022-08-26T08:55:18.314Z,3.85
2022-08-26T08:58:04.991Z,3.65
2022-08-26T09:00:59.461Z,3.80
2022-08-26T09:04:29.566Z,3.65
2022-08-26T09:07:02.102Z,3.45
2022-08-26T09:09:41.615Z,3.10
2022-08-26T09:12:30.092Z,3.30
2022-08-26T09:15:09.730Z,3.10
2022-08-26T09:18:01.248Z,2.95
2022-08-26T09:21:03.050Z,3.10
2022-08-26T09:23:35.936Z,3.58
2022-08-26T09:26:31.785Z,4.10
2022-08-26T09:29:05.568Z,6.43
2022-08-26T09:31:38.979Z,4.72
2022-08-26T09:34:26.009Z,5.20
2022-08-26T09:36:59.407Z,4.45
2022-08-26T09:39:39.194Z,5.30
2022-08-26T09:42:24.950Z,5.25
2022-08-26T09:45:01.672Z,5.03
2022-08-26T09:47:39.494Z,5.00
2022-08-26T09:50:33.444Z,5.05
2022-08-26T09:53:16.275Z,5.28
2022-08-26T09:55:49.361Z,5.05
2022-08-26T09:58:38.074Z,5.90
2022-08-26T10:01:10.630Z,5.82
2022-08-26T10:03:42.661Z,5.93
2022-08-26T10:06:21.294Z,7.43
2022-08-26T10:08:56.109Z,6.65
2022-08-26T10:11:30.595Z,7.60
2022-08-26T10:14:06.281Z,7.28
2022-08-26T10:16:50.975Z,7.28
2022-08-26T10:19:29.167Z,7.75
2022-08-26T10:22:21.276Z,6.32
2022-08-26T10:24:55.861Z,7.57
2022-08-26T10:28:04.443Z,6.85
2022-08-26T10:30:44.669Z,6.88
2022-08-26T10:33:17.917Z,6.43
2022-08-26T10:35:55.478Z,6.88
2022-08-26T10:38:31.787Z,6.88
2022-08-26T10:41:09.789Z,6.78
2022-08-26T10:43:49.053Z,7.60
2022-08-26T10:46:23.784Z,6.88
2022-08-26T10:49:01.240Z,6.88
2022-08-26T10:51:40.003Z,6.53
2022-08-26T10:54:15.992Z,6.60
2022-08-26T10:56:49.833Z,7.50
2022-08-26T10:59:58.281Z,7.38
2022-08-26T11:02:49.788Z,8.68
2022-08-26T11:05:25.002Z,7.00
2022-08-26T11:07:57.770Z,6.35
2022-08-26T11:10:28.477Z,7.72
2022-08-26T11:13:00.686Z,6.97
2022-08-26T11:15:30.945Z,7.93
2022-08-26T11:18:02.441Z,7.00
2022-08-26T11:20:36.350Z,6.95
2022-08-26T11:23:25.653Z,6.70
2022-08-26T11:26:10.997Z,6.85
2022-08-26T11:28:55.494Z,7.72
2022-08-26T11:31:29.888Z,7.43
2022-08-26T11:34:18.361Z,7.65
2022-08-26T11:36:50.819Z,6.25
2022-08-26T11:39:30.501Z,7.57
2022-08-26T11:42:20.259Z,7.63
2022-08-26T11:44:49.963Z,7.43
2022-08-26T11:47:30.203Z,6.78
2022-08-26T11:50:21.201Z,7.72
2022-08-26T11:52:57.075Z,7.80
2022-08-26T11:55:26.650Z,7.75
2022-08-26T11:57:59.559Z,7.28
2022-08-26T12:00:36.412Z,7.47
2022-08-26T12:03:09.953Z,7.78
2022-08-26T12:05:46.662Z,8.25
2022-08-26T12:08:23.025Z,7.97
2022-08-26T12:11:15.081Z,14.50
2022-08-26T12:13:44.436Z,8.38
2022-08-26T12:16:15.783Z,8.25
2022-08-26T12:18:45.087Z,9.93
2022-08-26T12:21:24.272Z,6.45
2022-08-26T12:23:57.722Z,3.45
2022-08-26T12:26:37.435Z,4.60
2022-08-26T12:29:10.796Z,3.67
2022-08-26T12:31:49.473Z,3.67
2022-08-26T12:34:19.442Z,3.85
2022-08-26T12:36:55.450Z,3.60
2022-08-26T12:39:42.235Z,2.90
2022-08-26T12:42:19.920Z,3.22
2022-08-26T12:45:07.911Z,3.25
2022-08-26T12:47:44.455Z,2.88
2022-08-26T12:50:22.423Z,2.80
2022-08-26T12:53:00.199Z,2.70
2022-08-26T12:55:55.365Z,2.50
2022-08-26T12:58:28.959Z,1.90
2022-08-26T13:01:01.383Z,2.15
2022-08-26T13:03:45.001Z,2.42
2022-08-26T13:06:24.868Z,2.10
2022-08-26T13:08:56.010Z,2.03
2022-08-26T13:11:29.124Z,2.47
2022-08-26T13:14:07.143Z,2.60
2022-08-26T13:16:38.380Z,2.30
2022-08-26T13:19:10.757Z,2.28
2022-08-26T13:21:46.354Z,2.03
2022-08-26T13:24:20.391Z,2.42
2022-08-26T13:26:51.330Z,2.60
2022-08-26T13:29:21.332Z,2.35
2022-08-26T13:31:51.675Z,2.42
2022-08-26T13:34:23.118Z,2.55
2022-08-26T13:36:55.482Z,2.75
2022-08-26T13:39:26.267Z,2.58
2022-08-26T13:41:55.852Z,3.10
2022-08-26T13:44:25.386Z,2.50
2022-08-26T13:46:55.479Z,3.20
2022-08-26T13:49:24.881Z,2.75
2022-08-26T13:51:54.199Z,3.55
2022-08-26T13:54:23.401Z,2.80
2022-08-26T13:56:53.092Z,2.72
2022-08-26T13:59:23.246Z,3.33
2022-08-26T14:01:52.496Z,3.05
2022-08-26T14:04:23.345Z,3.58
2022-08-26T14:06:56.629Z,3.30
2022-08-26T14:09:26.005Z,3.55
2022-08-26T14:11:55.360Z,3.28
2022-08-26T14:14:24.784Z,3.30
2022-08-26T14:16:59.472Z,3.50
2022-08-26T14:19:31.450Z,3.65
2022-08-26T14:22:02.422Z,3.45
2022-08-26T14:24:32.192Z,3.58
2022-08-26T14:27:01.431Z,3.95
2022-08-26T14:29:30.591Z,3.58
2022-08-26T14:32:01.668Z,3.63
2022-08-26T14:34:30.918Z,3.97
2022-08-26T14:37:07.181Z,3.97
2022-08-26T14:39:38.538Z,3.92
2022-08-26T14:42:08.454Z,4.13
2022-08-26T14:44:38.411Z,4.25
2022-08-26T14:49:44.082Z,5.28
2022-08-26T14:52:13.192Z,4.35
2022-08-26T14:54:42.319Z,3.58
2022-08-26T14:57:14.900Z,3.60
2022-08-26T14:59:49.960Z,4.50
2022-08-26T15:02:33.556Z,3.72
2022-08-26T15:05:04.284Z,3.67
2022-08-26T15:07:33.543Z,2.97
2022-08-26T15:10:02.853Z,3.78
2022-08-26T15:12:32.787Z,3.40
2022-08-26T15:15:02.065Z,3.60
2022-08-26T15:17:31.349Z,6.57
2022-08-26T15:20:00.694Z,5.03
2022-08-26T15:22:30.038Z,3.70
2022-08-26T15:24:59.723Z,3.13
2022-08-26T15:27:29.114Z,3.45
2022-08-26T15:29:58.349Z,2.90
2022-08-26T15:32:27.643Z,4.57
2022-08-26T15:34:56.865Z,3.70
2022-08-26T15:37:26.327Z,2.88
2022-08-26T15:39:55.795Z,4.45
2022-08-26T15:42:25.568Z,2.80
2022-08-26T15:44:54.882Z,6.07
2022-08-26T15:47:25.167Z,3.35
2022-08-26T15:49:55.025Z,2.40
2022-08-26T15:52:24.270Z,2.50
2022-08-26T15:54:54.123Z,2.38
2022-08-26T15:57:23.418Z,2.78
2022-08-26T15:59:53.037Z,4.82
2022-08-26T16:02:22.856Z,2.85
2022-08-26T16:04:52.106Z,3.00
2022-08-26T16:07:23.597Z,2.80
2022-08-26T16:09:55.422Z,3.60
2022-08-26T16:12:24.861Z,9.30
2022-08-26T16:14:55.333Z,3.85
2022-08-26T16:17:24.507Z,6.65
2022-08-26T16:19:53.702Z,6.18
2022-08-26T16:22:22.926Z,2.78
2022-08-26T16:24:53.033Z,5.13
2022-08-26T16:27:24.419Z,11.88
2022-08-26T16:29:53.543Z,6.00
2022-08-26T16:32:22.828Z,3.78
2022-08-26T16:34:56.965Z,4.80
2022-08-26T16:37:26.927Z,5.70
2022-08-26T16:39:56.247Z,6.30
2022-08-26T16:42:25.446Z,5.00
2022-08-26T16:44:55.075Z,7.35
2022-08-26T16:47:24.615Z,6.25
2022-08-26T16:49:54.063Z,6.53
2022-08-26T16:52:25.207Z,10.90
2022-08-26T16:54:59.803Z,7.22
2022-08-26T16:57:29.111Z,8.45
2022-08-26T17:03:39.834Z,5.85
2022-08-26T17:06:09.320Z,6.97
2022-08-26T17:08:41.385Z,6.10
2022-08-26T17:11:11.220Z,5.57
2022-08-26T17:13:41.131Z,6.75
2022-08-26T17:16:12.457Z,5.03
2022-08-26T17:18:41.939Z,7.03
2022-08-26T17:21:13.643Z,5.70
2022-08-26T17:23:44.597Z,5.90
2022-08-26T17:26:14.711Z,3.80
2022-08-26T17:28:44.018Z,4.50
2022-08-26T17:31:14.930Z,5.53
2022-08-26T17:33:46.729Z,6.43
2022-08-26T17:36:18.398Z,4.00
2022-08-26T17:38:50.310Z,6.43
2022-08-26T17:41:23.478Z,5.47
2022-08-26T17:43:52.869Z,6.03
2022-08-26T17:46:22.133Z,4.82
2022-08-26T17:48:51.424Z,11.10
2022-08-26T17:51:21.751Z,9.35
2022-08-26T17:53:51.764Z,6.15
2022-08-26T17:56:25.631Z,5.47
2022-08-26T17:58:57.468Z,4.88
2022-08-26T18:01:32.163Z,4.97
2022-08-26T18:04:01.411Z,4.65
2022-08-26T18:06:31.791Z,3.50
2022-08-26T18:09:02.366Z,3.50
2022-08-26T18:11:32.622Z,4.53
2022-08-26T18:14:02.916Z,7.35
2022-08-26T18:16:35.504Z,3.65
2022-08-26T18:19:04.885Z,3.60
2022-08-26T18:21:34.529Z,3.63
2022-08-26T18:24:03.859Z,5.15
2022-08-26T18:26:37.773Z,6.68
2022-08-26T18:29:08.142Z,7.53
2022-08-26T18:31:37.462Z,5.47
2022-08-26T18:34:07.784Z,5.60
2022-08-26T18:36:39.471Z,8.63
2022-08-26T18:39:10.248Z,4.43
2022-08-26T18:41:46.436Z,4.38
2022-08-26T18:44:17.912Z,3.33
2022-08-26T18:46:48.319Z,3.83
2022-08-26T18:49:19.664Z,5.47
2022-08-26T18:51:51.970Z,4.05
2022-08-26T18:54:22.358Z,3.80
2022-08-26T18:56:51.615Z,4.03
2022-08-26T18:59:28.807Z,3.63
2022-08-26T19:02:00.738Z,4.10
2022-08-26T19:04:30.130Z,5.13
2022-08-26T19:06:59.392Z,5.38
2022-08-26T19:09:28.709Z,5.32
2022-08-26T19:11:57.974Z,5.22
2022-08-26T19:14:27.382Z,8.73
2022-08-26T19:16:56.971Z,7.30
2022-08-26T19:19:27.332Z,5.88
2022-08-26T19:21:56.946Z,8.95
2022-08-26T19:24:28.147Z,12.90
2022-08-26T19:27:00.985Z,4.43
2022-08-26T19:29:33.637Z,8.70
2022-08-26T19:32:03.558Z,4.63
2022-08-26T19:34:33.164Z,4.65
2022-08-26T19:37:02.346Z,6.53
2022-08-26T19:39:31.622Z,5.13
2022-08-26T19:42:01.739Z,5.30
2022-08-26T19:44:50.674Z,5.82
2022-08-26T19:52:32.614Z,10.30
2022-08-26T19:55:19.697Z,5.28
2022-08-26T19:57:48.932Z,7.55
2022-08-26T20:00:21.429Z,10.77
2022-08-26T20:02:51.194Z,6.53
2022-08-26T20:08:08.168Z,5.05
2022-08-26T20:10:47.833Z,5.13
2022-08-26T20:13:26.917Z,4.40
2022-08-26T20:18:59.347Z,4.47
2022-08-26T20:21:30.843Z,4.57
2022-08-26T20:24:08.643Z,4.30
2022-08-26T20:26:40.920Z,5.10
2022-08-26T20:29:12.917Z,4.47
2022-08-26T20:31:43.244Z,6.40
2022-08-26T20:34:14.645Z,7.28
2022-08-26T20:36:44.881Z,6.50
2022-08-26T20:39:14.781Z,4.53
2022-08-26T20:41:46.918Z,4.97
2022-08-26T20:44:16.260Z,4.40
2022-08-26T20:46:46.215Z,5.43
2022-08-26T20:52:13.503Z,5.25
2022-08-26T20:54:42.852Z,6.43
2022-08-26T20:57:12.086Z,6.22
2022-08-26T20:59:41.344Z,4.72
2022-08-26T21:02:11.195Z,10.20
2022-08-26T21:04:40.498Z,17.23
2022-08-26T21:09:56.398Z,19.27
2022-08-26T21:12:25.548Z,12.32
2022-08-26T21:14:54.936Z,8.40
2022-08-26T21:17:24.221Z,6.45
2022-08-26T21:20:03.628Z,6.28
2022-08-26T21:22:32.952Z,4.40
2022-08-26T21:25:02.474Z,5.00
2022-08-26T21:27:31.735Z,4.63
2022-08-26T21:32:44.181Z,4.28
2022-08-26T21:35:13.389Z,4.20
2022-08-26T21:37:42.687Z,4.43
2022-08-26T21:40:12.609Z,3.78
2022-08-26T21:42:41.914Z,4.10
2022-08-26T21:45:21.013Z,3.75
2022-08-26T21:47:50.168Z,4.43
2022-08-26T21:50:19.447Z,3.92
2022-08-26T21:52:48.729Z,4.40
2022-08-26T21:55:17.999Z,5.55
2022-08-26T22:00:35.622Z,4.97
2022-08-26T22:03:05.002Z,4.85
2022-08-26T22:05:34.196Z,5.53
2022-08-26T22:08:03.432Z,5.47
2022-08-26T22:10:32.668Z,5.55
2022-08-26T22:13:01.923Z,5.53
2022-08-26T22:15:33.235Z,5.15
2022-08-26T22:18:05.671Z,5.15
2022-08-26T22:20:35.063Z,5.55
2022-08-26T22:23:04.632Z,5.13
2022-08-26T22:25:34.126Z,5.22
2022-08-26T22:28:03.403Z,5.07
2022-08-26T22:30:33.022Z,4.40
2022-08-26T22:33:02.551Z,4.82
2022-08-26T22:35:32.013Z,4.85
2022-08-26T22:38:01.572Z,4.50
2022-08-26T22:40:30.799Z,4.65
2022-08-26T22:43:00.387Z,5.18
2022-08-26T22:45:32.617Z,5.57
2022-08-26T22:48:06.022Z,5.40
2022-08-26T22:50:35.338Z,5.38
2022-08-26T22:53:04.854Z,5.50
2022-08-26T22:55:34.086Z,4.85
2022-08-26T22:58:03.502Z,4.70
2022-08-26T23:00:33.199Z,4.50
2022-08-26T23:03:03.611Z,5.35
2022-08-26T23:05:34.090Z,5.50
2022-08-26T23:08:04.264Z,4.95
2022-08-26T23:10:34.253Z,5.20
2022-08-26T23:13:05.093Z,5.20
2022-08-26T23:15:34.291Z,5.65
2022-08-26T23:18:03.907Z,6.75
2022-08-26T23:20:35.003Z,5.45
2022-08-26T23:23:04.251Z,5.65
2022-08-26T23:25:34.017Z,5.85
2022-08-26T23:28:04.255Z,6.03
2022-08-26T23:30:35.834Z,6.45
2022-08-26T23:33:05.119Z,8.02
2022-08-26T23:35:34.362Z,7.63
2022-08-26T23:38:04.235Z,7.10
2022-08-26T23:40:36.328Z,7.32
2022-08-26T23:43:09.358Z,6.68
2022-08-26T23:45:39.176Z,6.38
2022-08-26T23:48:09.015Z,6.25
2022-08-26T23:50:58.026Z,6.82
2022-08-26T23:53:27.313Z,6.88
2022-08-26T23:55:56.891Z,7.20
2022-08-26T23:58:26.087Z,6.80
